sensor_id;sensor_type;location;lat;lon;timestamp;P1;durP1;ratioP1;P2;durP2;ratioP2
70270;SDS011;57680;54.292;18.598;2022-12-11T00:00:32;72.25;;;23.02;;
70270;SDS011;57680;54.292;18.598;2022-12-11T00:02:58;64.30;;;21.07;;
70270;SDS011;57680;54.292;18.598;2022-12-11T00:05:23;60.27;;;21.47;;
70270;SDS011;57680;54.292;18.598;2022-12-11T00:07:49;77.97;;;25.77;;
70270;SDS011;57680;54.292;18.598;2022-12-11T00:10:14;77.93;;;27.03;;
70270;SDS011;57680;54.292;18.598;2022-12-11T00:12:40;86.13;;;28.43;;
70270;SDS011;57680;54.292;18.598;2022-12-11T00:15:06;79.72;;;28.55;;
70270;SDS011;57680;54.292;18.598;2022-12-11T00:17:31;86.17;;;27.50;;
70270;SDS011;57680;54.292;18.598;2022-12-11T00:19:57;97.50;;;31.02;;
70270;SDS011;57680;54.292;18.598;2022-12-11T00:22:22;79.97;;;28.13;;
70270;SDS011;57680;54.292;18.598;2022-12-11T00:24:48;83.83;;;28.23;;
70270;SDS011;57680;54.292;18.598;2022-12-11T00:27:13;75.93;;;26.00;;
70270;SDS011;57680;54.292;18.598;2022-12-11T00:29:39;80.15;;;27.38;;
70270;SDS011;57680;54.292;18.598;2022-12-11T00:32:04;71.37;;;25.50;;
70270;SDS011;57680;54.292;18.598;2022-12-11T00:34:30;88.03;;;28.30;;
70270;SDS011;57680;54.292;18.598;2022-12-11T00:36:56;75.97;;;26.58;;
70270;SDS011;57680;54.292;18.598;2022-12-11T00:39:23;54.47;;;19.50;;
70270;SDS011;57680;54.292;18.598;2022-12-11T00:41:48;70.35;;;24.38;;
70270;SDS011;57680;54.292;18.598;2022-12-11T00:44:14;73.47;;;27.07;;
70270;SDS011;57680;54.292;18.598;2022-12-11T00:46:39;73.55;;;25.00;;
70270;SDS011;57680;54.292;18.598;2022-12-11T00:49:05;79.35;;;26.17;;
70270;SDS011;57680;54.292;18.598;2022-12-11T00:51:30;89.87;;;30.50;;
70270;SDS011;57680;54.292;18.598;2022-12-11T00:53:55;85.87;;;28.03;;
70270;SDS011;57680;54.292;18.598;2022-12-11T00:56:22;73.03;;;24.20;;
70270;SDS011;57680;54.292;18.598;2022-12-11T00:58:48;61.17;;;21.45;;
70270;SDS011;57680;54.292;18.598;2022-12-11T01:01:15;69.50;;;26.00;;
70270;SDS011;57680;54.292;18.598;2022-12-11T01:03:43;87.18;;;29.60;;
70270;SDS011;57680;54.292;18.598;2022-12-11T01:06:13;73.70;;;26.00;;
70270;SDS011;57680;54.292;18.598;2022-12-11T01:08:40;85.13;;;26.80;;
70270;SDS011;57680;54.292;18.598;2022-12-11T01:11:08;73.47;;;25.35;;
70270;SDS011;57680;54.292;18.598;2022-12-11T01:13:35;74.95;;;24.95;;
70270;SDS011;57680;54.292;18.598;2022-12-11T01:16:05;80.45;;;26.30;;
70270;SDS011;57680;54.292;18.598;2022-12-11T01:18:36;80.18;;;27.13;;
70270;SDS011;57680;54.292;18.598;2022-12-11T01:21:09;83.18;;;28.60;;
70270;SDS011;57680;54.292;18.598;2022-12-11T01:23:37;74.93;;;26.23;;
70270;SDS011;57680;54.292;18.598;2022-12-11T01:26:09;83.43;;;28.85;;
70270;SDS011;57680;54.292;18.598;2022-12-11T01:28:37;84.47;;;28.10;;
70270;SDS011;57680;54.292;18.598;2022-12-11T01:31:06;80.10;;;27.50;;
70270;SDS011;57680;54.292;18.598;2022-12-11T01:33:33;86.30;;;29.67;;
70270;SDS011;57680;54.292;18.598;2022-12-11T01:35:58;80.73;;;28.23;;
70270;SDS011;57680;54.292;18.598;2022-12-11T01:38:24;89.70;;;27.98;;
70270;SDS011;57680;54.292;18.598;2022-12-11T01:40:50;80.30;;;26.97;;
70270;SDS011;57680;54.292;18.598;2022-12-11T01:43:16;74.05;;;27.50;;
70270;SDS011;57680;54.292;18.598;2022-12-11T01:45:43;76.83;;;26.70;;
70270;SDS011;57680;54.292;18.598;2022-12-11T01:48:12;83.30;;;27.50;;
70270;SDS011;57680;54.292;18.598;2022-12-11T01:50:41;77.57;;;26.55;;
70270;SDS011;57680;54.292;18.598;2022-12-11T01:53:11;76.03;;;27.92;;
70270;SDS011;57680;54.292;18.598;2022-12-11T01:55:39;84.03;;;28.98;;
70270;SDS011;57680;54.292;18.598;2022-12-11T01:58:05;85.30;;;27.63;;
70270;SDS011;57680;54.292;18.598;2022-12-11T02:00:32;83.95;;;27.77;;
70270;SDS011;57680;54.292;18.598;2022-12-11T02:02:58;86.97;;;29.27;;
70270;SDS011;57680;54.292;18.598;2022-12-11T02:05:23;86.57;;;30.85;;
70270;SDS011;57680;54.292;18.598;2022-12-11T02:07:50;81.87;;;28.53;;
70270;SDS011;57680;54.292;18.598;2022-12-11T02:10:18;78.38;;;26.15;;
70270;SDS011;57680;54.292;18.598;2022-12-11T02:15:25;77.72;;;27.05;;
70270;SDS011;57680;54.292;18.598;2022-12-11T02:18:16;84.90;;;29.17;;
70270;SDS011;57680;54.292;18.598;2022-12-11T02:26:40;95.63;;;32.58;;
70270;SDS011;57680;54.292;18.598;2022-12-11T02:31:28;91.60;;;30.30;;
70270;SDS011;57680;54.292;18.598;2022-12-11T02:34:03;68.88;;;26.67;;
70270;SDS011;57680;54.292;18.598;2022-12-11T02:36:40;91.07;;;29.88;;
70270;SDS011;57680;54.292;18.598;2022-12-11T02:39:10;89.78;;;31.15;;
70270;SDS011;57680;54.292;18.598;2022-12-11T02:41:39;82.97;;;28.70;;
70270;SDS011;57680;54.292;18.598;2022-12-11T02:44:09;85.57;;;29.95;;
70270;SDS011;57680;54.292;18.598;2022-12-11T02:46:36;92.55;;;31.02;;
70270;SDS011;57680;54.292;18.598;2022-12-11T02:49:03;90.35;;;31.67;;
70270;SDS011;57680;54.292;18.598;2022-12-11T02:51:31;92.00;;;32.22;;
70270;SDS011;57680;54.292;18.598;2022-12-11T02:54:02;84.47;;;27.27;;
70270;SDS011;57680;54.292;18.598;2022-12-11T02:56:32;75.28;;;27.33;;
70270;SDS011;57680;54.292;18.598;2022-12-11T02:59:07;82.28;;;28.08;;
70270;SDS011;57680;54.292;18.598;2022-12-11T03:01:37;75.63;;;26.90;;
70270;SDS011;57680;54.292;18.598;2022-12-11T03:04:02;84.80;;;28.47;;
70270;SDS011;57680;54.292;18.598;2022-12-11T03:06:30;81.00;;;26.90;;
70270;SDS011;57680;54.292;18.598;2022-12-11T03:09:00;77.73;;;26.37;;
70270;SDS011;57680;54.292;18.598;2022-12-11T03:11:26;74.50;;;26.65;;
70270;SDS011;57680;54.292;18.598;2022-12-11T03:13:51;73.23;;;26.20;;
70270;SDS011;57680;54.292;18.598;2022-12-11T03:24:48;79.25;;;27.90;;
70270;SDS011;57680;54.292;18.598;2022-12-11T03:26:54;72.05;;;24.27;;
70270;SDS011;57680;54.292;18.598;2022-12-11T03:34:59;60.30;;;20.17;;
70270;SDS011;57680;54.292;18.598;2022-12-11T03:37:33;62.10;;;21.10;;
70270;SDS011;57680;54.292;18.598;2022-12-11T03:40:06;53.50;;;19.58;;
70270;SDS011;57680;54.292;18.598;2022-12-11T03:42:38;56.97;;;19.27;;
70270;SDS011;57680;54.292;18.598;2022-12-11T03:45:07;44.92;;;15.65;;
70270;SDS011;57680;54.292;18.598;2022-12-11T03:47:33;53.70;;;18.93;;
70270;SDS011;57680;54.292;18.598;2022-12-11T03:50:00;49.03;;;16.95;;
70270;SDS011;57680;54.292;18.598;2022-12-11T03:52:28;51.95;;;18.88;;
70270;SDS011;57680;54.292;18.598;2022-12-11T03:54:56;54.42;;;19.52;;
70270;SDS011;57680;54.292;18.598;2022-12-11T03:57:25;56.13;;;19.20;;
70270;SDS011;57680;54.292;18.598;2022-12-11T03:59:54;60.22;;;20.52;;
70270;SDS011;57680;54.292;18.598;2022-12-11T04:05:23;56.03;;;20.43;;
70270;SDS011;57680;54.292;18.598;2022-12-11T04:07:48;60.40;;;21.80;;
70270;SDS011;57680;54.292;18.598;2022-12-11T04:10:14;58.73;;;22.13;;
70270;SDS011;57680;54.292;18.598;2022-12-11T04:12:39;63.17;;;22.53;;
70270;SDS011;57680;54.292;18.598;2022-12-11T04:15:05;62.77;;;22.43;;
70270;SDS011;57680;54.292;18.598;2022-12-11T04:17:34;59.90;;;21.95;;
70270;SDS011;57680;54.292;18.598;2022-12-11T04:20:19;53.60;;;19.83;;
70270;SDS011;57680;54.292;18.598;2022-12-11T04:23:04;59.53;;;21.65;;
70270;SDS011;57680;54.292;18.598;2022-12-11T04:26:09;63.80;;;22.23;;
70270;SDS011;57680;54.292;18.598;2022-12-11T04:28:38;61.70;;;22.63;;
70270;SDS011;57680;54.292;18.598;2022-12-11T04:31:04;59.90;;;21.95;;
70270;SDS011;57680;54.292;18.598;2022-12-11T04:33:30;66.87;;;21.07;;
70270;SDS011;57680;54.292;18.598;2022-12-11T04:35:56;63.20;;;22.45;;
70270;SDS011;57680;54.292;18.598;2022-12-11T04:38:22;63.70;;;22.42;;
70270;SDS011;57680;54.292;18.598;2022-12-11T04:40:48;61.03;;;20.83;;
70270;SDS011;57680;54.292;18.598;2022-12-11T04:43:13;64.57;;;21.70;;
70270;SDS011;57680;54.292;18.598;2022-12-11T04:45:39;62.17;;;20.07;;
70270;SDS011;57680;54.292;18.598;2022-12-11T04:48:05;62.00;;;22.08;;
70270;SDS011;57680;54.292;18.598;2022-12-11T04:50:30;64.10;;;22.60;;
70270;SDS011;57680;54.292;18.598;2022-12-11T04:52:56;59.33;;;20.75;;
70270;SDS011;57680;54.292;18.598;2022-12-11T04:55:21;64.22;;;22.30;;
70270;SDS011;57680;54.292;18.598;2022-12-11T04:57:47;62.60;;;22.10;;
70270;SDS011;57680;54.292;18.598;2022-12-11T05:00:13;65.53;;;22.77;;
70270;SDS011;57680;54.292;18.598;2022-12-11T05:02:40;59.88;;;21.77;;
70270;SDS011;57680;54.292;18.598;2022-12-11T05:05:07;61.60;;;22.95;;
70270;SDS011;57680;54.292;18.598;2022-12-11T05:07:34;68.30;;;22.17;;
70270;SDS011;57680;54.292;18.598;2022-12-11T05:10:00;63.92;;;23.98;;
70270;SDS011;57680;54.292;18.598;2022-12-11T05:12:26;60.25;;;22.85;;
70270;SDS011;57680;54.292;18.598;2022-12-11T05:14:52;76.70;;;25.48;;
70270;SDS011;57680;54.292;18.598;2022-12-11T05:17:19;68.75;;;24.23;;
70270;SDS011;57680;54.292;18.598;2022-12-11T05:19:46;64.18;;;21.55;;
70270;SDS011;57680;54.292;18.598;2022-12-11T05:22:13;63.30;;;23.60;;
70270;SDS011;57680;54.292;18.598;2022-12-11T05:24:38;59.22;;;21.05;;
70270;SDS011;57680;54.292;18.598;2022-12-11T05:27:04;60.57;;;22.53;;
70270;SDS011;57680;54.292;18.598;2022-12-11T05:29:30;58.77;;;22.00;;
70270;SDS011;57680;54.292;18.598;2022-12-11T05:31:55;78.87;;;27.23;;
70270;SDS011;57680;54.292;18.598;2022-12-11T05:34:21;72.77;;;25.17;;
70270;SDS011;57680;54.292;18.598;2022-12-11T05:36:47;75.27;;;26.03;;
70270;SDS011;57680;54.292;18.598;2022-12-11T05:39:12;69.47;;;26.73;;
70270;SDS011;57680;54.292;18.598;2022-12-11T05:41:38;66.03;;;23.02;;
70270;SDS011;57680;54.292;18.598;2022-12-11T05:44:04;60.03;;;22.90;;
70270;SDS011;57680;54.292;18.598;2022-12-11T05:46:29;53.90;;;19.03;;
70270;SDS011;57680;54.292;18.598;2022-12-11T05:48:56;48.97;;;18.30;;
70270;SDS011;57680;54.292;18.598;2022-12-11T05:51:24;51.40;;;19.63;;
70270;SDS011;57680;54.292;18.598;2022-12-11T05:53:50;50.42;;;18.17;;
70270;SDS011;57680;54.292;18.598;2022-12-11T05:56:17;46.15;;;16.90;;
70270;SDS011;57680;54.292;18.598;2022-12-11T05:58:45;50.70;;;18.15;;
70270;SDS011;57680;54.292;18.598;2022-12-11T06:01:13;41.10;;;14.25;;
70270;SDS011;57680;54.292;18.598;2022-12-11T06:03:44;44.35;;;16.38;;
70270;SDS011;57680;54.292;18.598;2022-12-11T06:06:10;42.87;;;16.37;;
70270;SDS011;57680;54.292;18.598;2022-12-11T06:08:35;43.58;;;15.50;;
70270;SDS011;57680;54.292;18.598;2022-12-11T06:11:01;41.90;;;15.00;;
70270;SDS011;57680;54.292;18.598;2022-12-11T06:13:27;43.78;;;16.17;;
70270;SDS011;57680;54.292;18.598;2022-12-11T06:15:52;39.70;;;15.67;;
70270;SDS011;57680;54.292;18.598;2022-12-11T06:18:18;38.70;;;14.30;;
70270;SDS011;57680;54.292;18.598;2022-12-11T06:20:43;35.97;;;13.82;;
70270;SDS011;57680;54.292;18.598;2022-12-11T06:23:09;35.83;;;13.30;;
70270;SDS011;57680;54.292;18.598;2022-12-11T06:25:37;34.43;;;13.80;;
70270;SDS011;57680;54.292;18.598;2022-12-11T06:28:03;37.08;;;13.07;;
70270;SDS011;57680;54.292;18.598;2022-12-11T06:30:28;37.88;;;13.20;;
70270;SDS011;57680;54.292;18.598;2022-12-11T06:32:54;33.47;;;12.23;;
70270;SDS011;57680;54.292;18.598;2022-12-11T06:35:20;33.80;;;13.00;;
70270;SDS011;57680;54.292;18.598;2022-12-11T06:37:45;38.30;;;12.93;;
70270;SDS011;57680;54.292;18.598;2022-12-11T06:40:11;40.33;;;14.37;;
70270;SDS011;57680;54.292;18.598;2022-12-11T06:42:37;38.72;;;14.93;;
70270;SDS011;57680;54.292;18.598;2022-12-11T06:45:03;40.20;;;13.70;;
70270;SDS011;57680;54.292;18.598;2022-12-11T06:47:28;33.27;;;12.60;;
70270;SDS011;57680;54.292;18.598;2022-12-11T06:49:55;35.60;;;13.20;;
70270;SDS011;57680;54.292;18.598;2022-12-11T06:52:21;34.53;;;12.13;;
70270;SDS011;57680;54.292;18.598;2022-12-11T06:54:48;29.88;;;11.23;;
70270;SDS011;57680;54.292;18.598;2022-12-11T06:57:14;33.75;;;11.95;;
70270;SDS011;57680;54.292;18.598;2022-12-11T06:59:40;28.20;;;11.05;;
70270;SDS011;57680;54.292;18.598;2022-12-11T07:02:06;27.13;;;9.90;;
70270;SDS011;57680;54.292;18.598;2022-12-11T07:04:31;25.83;;;10.07;;
70270;SDS011;57680;54.292;18.598;2022-12-11T07:06:57;23.47;;;8.57;;
70270;SDS011;57680;54.292;18.598;2022-12-11T07:09:22;21.40;;;8.07;;
70270;SDS011;57680;54.292;18.598;2022-12-11T07:11:49;20.15;;;8.68;;
70270;SDS011;57680;54.292;18.598;2022-12-11T07:14:15;20.58;;;7.78;;
70270;SDS011;57680;54.292;18.598;2022-12-11T07:16:41;19.90;;;7.53;;
70270;SDS011;57680;54.292;18.598;2022-12-11T07:19:06;19.00;;;7.50;;
70270;SDS011;57680;54.292;18.598;2022-12-11T07:21:32;16.77;;;5.70;;
70270;SDS011;57680;54.292;18.598;2022-12-11T07:23:57;14.43;;;5.30;;
70270;SDS011;57680;54.292;18.598;2022-12-11T07:26:22;14.27;;;5.27;;
70270;SDS011;57680;54.292;18.598;2022-12-11T07:28:48;14.85;;;5.78;;
70270;SDS011;57680;54.292;18.598;2022-12-11T07:31:16;14.53;;;5.30;;
70270;SDS011;57680;54.292;18.598;2022-12-11T07:33:51;13.37;;;5.47;;
70270;SDS011;57680;54.292;18.598;2022-12-11T07:36:28;11.93;;;5.43;;
70270;SDS011;57680;54.292;18.598;2022-12-11T07:38:55;13.82;;;4.80;;
70270;SDS011;57680;54.292;18.598;2022-12-11T07:41:21;13.25;;;4.63;;
70270;SDS011;57680;54.292;18.598;2022-12-11T07:43:47;11.83;;;4.47;;
70270;SDS011;57680;54.292;18.598;2022-12-11T07:46:14;12.52;;;4.70;;
70270;SDS011;57680;54.292;18.598;2022-12-11T07:48:43;11.52;;;4.40;;
70270;SDS011;57680;54.292;18.598;2022-12-11T07:51:20;12.65;;;4.63;;
70270;SDS011;57680;54.292;18.598;2022-12-11T07:53:52;12.80;;;4.50;;
70270;SDS011;57680;54.292;18.598;2022-12-11T07:56:22;13.00;;;5.00;;
70270;SDS011;57680;54.292;18.598;2022-12-11T07:58:48;57.15;;;19.38;;
70270;SDS011;57680;54.292;18.598;2022-12-11T08:01:15;146.85;;;45.22;;
70270;SDS011;57680;54.292;18.598;2022-12-11T08:03:51;52.53;;;19.73;;
70270;SDS011;57680;54.292;18.598;2022-12-11T08:06:18;46.08;;;18.33;;
70270;SDS011;57680;54.292;18.598;2022-12-11T08:08:45;46.47;;;17.43;;
70270;SDS011;57680;54.292;18.598;2022-12-11T08:11:12;51.28;;;17.73;;
70270;SDS011;57680;54.292;18.598;2022-12-11T08:13:39;58.38;;;21.70;;
70270;SDS011;57680;54.292;18.598;2022-12-11T08:16:06;45.22;;;16.92;;
70270;SDS011;57680;54.292;18.598;2022-12-11T08:18:33;47.85;;;17.30;;
70270;SDS011;57680;54.292;18.598;2022-12-11T08:21:04;46.77;;;17.00;;
70270;SDS011;57680;54.292;18.598;2022-12-11T08:23:33;42.67;;;15.82;;
70270;SDS011;57680;54.292;18.598;2022-12-11T08:26:00;44.58;;;16.55;;
70270;SDS011;57680;54.292;18.598;2022-12-11T08:28:29;45.17;;;16.97;;
70270;SDS011;57680;54.292;18.598;2022-12-11T08:30:55;43.20;;;16.15;;
70270;SDS011;57680;54.292;18.598;2022-12-11T08:33:20;45.63;;;17.20;;
70270;SDS011;57680;54.292;18.598;2022-12-11T08:35:46;39.47;;;15.70;;
70270;SDS011;57680;54.292;18.598;2022-12-11T08:38:11;41.10;;;14.60;;
70270;SDS011;57680;54.292;18.598;2022-12-11T08:40:37;36.77;;;12.53;;
70270;SDS011;57680;54.292;18.598;2022-12-11T08:43:03;30.02;;;11.30;;
70270;SDS011;57680;54.292;18.598;2022-12-11T08:45:28;25.30;;;9.80;;
70270;SDS011;57680;54.292;18.598;2022-12-11T08:47:54;29.83;;;11.03;;
70270;SDS011;57680;54.292;18.598;2022-12-11T08:50:19;30.35;;;12.30;;
70270;SDS011;57680;54.292;18.598;2022-12-11T08:52:45;28.67;;;10.37;;
70270;SDS011;57680;54.292;18.598;2022-12-11T08:55:10;24.43;;;9.80;;
70270;SDS011;57680;54.292;18.598;2022-12-11T08:57:36;25.55;;;9.23;;
70270;SDS011;57680;54.292;18.598;2022-12-11T09:00:06;29.15;;;10.60;;
70270;SDS011;57680;54.292;18.598;2022-12-11T09:02:33;23.08;;;7.80;;
70270;SDS011;57680;54.292;18.598;2022-12-11T09:04:59;28.03;;;9.27;;
70270;SDS011;57680;54.292;18.598;2022-12-11T09:07:25;26.55;;;9.40;;
70270;SDS011;57680;54.292;18.598;2022-12-11T09:09:53;24.85;;;8.65;;
70270;SDS011;57680;54.292;18.598;2022-12-11T09:12:18;22.40;;;7.83;;
70270;SDS011;57680;54.292;18.598;2022-12-11T09:14:44;22.08;;;7.72;;
70270;SDS011;57680;54.292;18.598;2022-12-11T09:17:09;21.27;;;7.63;;
70270;SDS011;57680;54.292;18.598;2022-12-11T09:19:35;22.93;;;8.70;;
70270;SDS011;57680;54.292;18.598;2022-12-11T09:22:00;20.48;;;7.72;;
70270;SDS011;57680;54.292;18.598;2022-12-11T09:24:26;54.47;;;14.33;;
70270;SDS011;57680;54.292;18.598;2022-12-11T09:26:51;38.20;;;11.70;;
70270;SDS011;57680;54.292;18.598;2022-12-11T09:29:18;34.70;;;10.80;;
70270;SDS011;57680;54.292;18.598;2022-12-11T09:31:44;26.33;;;9.07;;
70270;SDS011;57680;54.292;18.598;2022-12-11T09:34:11;24.35;;;9.00;;
70270;SDS011;57680;54.292;18.598;2022-12-11T09:36:38;25.05;;;8.57;;
70270;SDS011;57680;54.292;18.598;2022-12-11T09:39:05;22.65;;;8.52;;
70270;SDS011;57680;54.292;18.598;2022-12-11T09:44:44;25.73;;;9.43;;
70270;SDS011;57680;54.292;18.598;2022-12-11T09:47:06;21.52;;;8.27;;
70270;SDS011;57680;54.292;18.598;2022-12-11T09:49:44;21.85;;;8.65;;
70270;SDS011;57680;54.292;18.598;2022-12-11T09:52:17;21.92;;;8.00;;
70270;SDS011;57680;54.292;18.598;2022-12-11T09:54:58;24.63;;;9.02;;
70270;SDS011;57680;54.292;18.598;2022-12-11T10:05:32;21.75;;;7.45;;
70270;SDS011;57680;54.292;18.598;2022-12-11T10:09:02;25.20;;;9.27;;
70270;SDS011;57680;54.292;18.598;2022-12-11T10:14:17;23.92;;;7.90;;
70270;SDS011;57680;54.292;18.598;2022-12-11T10:19:28;25.48;;;10.57;;
70270;SDS011;57680;54.292;18.598;2022-12-11T10:21:55;34.38;;;15.60;;
70270;SDS011;57680;54.292;18.598;2022-12-11T10:24:33;20.42;;;7.93;;
70270;SDS011;57680;54.292;18.598;2022-12-11T10:27:12;22.23;;;8.00;;
70270;SDS011;57680;54.292;18.598;2022-12-11T10:29:46;24.45;;;10.32;;
70270;SDS011;57680;54.292;18.598;2022-12-11T10:32:24;17.40;;;6.75;;
70270;SDS011;57680;54.292;18.598;2022-12-11T10:35:01;21.83;;;7.15;;
70270;SDS011;57680;54.292;18.598;2022-12-11T10:37:30;18.03;;;6.87;;
70270;SDS011;57680;54.292;18.598;2022-12-11T10:39:55;17.25;;;5.72;;
70270;SDS011;57680;54.292;18.598;2022-12-11T10:42:21;12.83;;;5.20;;
70270;SDS011;57680;54.292;18.598;2022-12-11T10:44:58;14.65;;;5.57;;
70270;SDS011;57680;54.292;18.598;2022-12-11T10:47:29;12.90;;;5.20;;
70270;SDS011;57680;54.292;18.598;2022-12-11T10:49:56;14.80;;;5.80;;
70270;SDS011;57680;54.292;18.598;2022-12-11T10:52:25;17.50;;;6.13;;
70270;SDS011;57680;54.292;18.598;2022-12-11T10:55:03;15.57;;;5.72;;
70270;SDS011;57680;54.292;18.598;2022-12-11T10:57:35;19.10;;;8.27;;
70270;SDS011;57680;54.292;18.598;2022-12-11T11:00:04;14.43;;;4.95;;
70270;SDS011;57680;54.292;18.598;2022-12-11T11:02:33;17.15;;;5.47;;
70270;SDS011;57680;54.292;18.598;2022-12-11T11:05:12;13.25;;;5.35;;
70270;SDS011;57680;54.292;18.598;2022-12-11T11:07:40;14.80;;;5.15;;
70270;SDS011;57680;54.292;18.598;2022-12-11T11:10:13;15.47;;;6.33;;
70270;SDS011;57680;54.292;18.598;2022-12-11T11:12:42;26.15;;;9.50;;
70270;SDS011;57680;54.292;18.598;2022-12-11T11:17:51;18.42;;;7.43;;
70270;SDS011;57680;54.292;18.598;2022-12-11T11:20:20;20.23;;;7.83;;
70270;SDS011;57680;54.292;18.598;2022-12-11T11:22:48;24.33;;;10.25;;
70270;SDS011;57680;54.292;18.598;2022-12-11T11:25:17;22.25;;;9.15;;
70270;SDS011;57680;54.292;18.598;2022-12-11T11:27:50;18.83;;;7.63;;
70270;SDS011;57680;54.292;18.598;2022-12-11T11:30:33;13.70;;;5.65;;
70270;SDS011;57680;54.292;18.598;2022-12-11T11:33:04;12.23;;;5.03;;
70270;SDS011;57680;54.292;18.598;2022-12-11T11:35:31;13.40;;;5.15;;
70270;SDS011;57680;54.292;18.598;2022-12-11T11:38:08;13.48;;;6.43;;
70270;SDS011;57680;54.292;18.598;2022-12-11T11:40:43;66.57;;;29.83;;
70270;SDS011;57680;54.292;18.598;2022-12-11T11:43:17;19.63;;;9.38;;
70270;SDS011;57680;54.292;18.598;2022-12-11T11:51:14;36.28;;;19.65;;
70270;SDS011;57680;54.292;18.598;2022-12-11T11:53:48;17.77;;;8.70;;
70270;SDS011;57680;54.292;18.598;2022-12-11T11:56:22;27.27;;;14.23;;
70270;SDS011;57680;54.292;18.598;2022-12-11T12:01:24;16.35;;;9.38;;
70270;SDS011;57680;54.292;18.598;2022-12-11T12:03:49;14.98;;;8.40;;
70270;SDS011;57680;54.292;18.598;2022-12-11T12:17:28;7.40;;;3.28;;
70270;SDS011;57680;54.292;18.598;2022-12-11T12:20:08;8.85;;;3.60;;
70270;SDS011;57680;54.292;18.598;2022-12-11T12:25:38;8.25;;;3.50;;
70270;SDS011;57680;54.292;18.598;2022-12-11T12:28:20;13.05;;;5.07;;
70270;SDS011;57680;54.292;18.598;2022-12-11T12:31:15;9.60;;;4.00;;
70270;SDS011;57680;54.292;18.598;2022-12-11T12:42:09;7.55;;;3.38;;
70270;SDS011;57680;54.292;18.598;2022-12-11T12:47:45;9.25;;;3.67;;
70270;SDS011;57680;54.292;18.598;2022-12-11T12:50:13;15.03;;;6.23;;
70270;SDS011;57680;54.292;18.598;2022-12-11T12:52:42;13.85;;;5.93;;
70270;SDS011;57680;54.292;18.598;2022-12-11T12:57:37;10.02;;;4.28;;
70270;SDS011;57680;54.292;18.598;2022-12-11T13:00:06;9.75;;;4.00;;
70270;SDS011;57680;54.292;18.598;2022-12-11T13:02:55;8.47;;;3.30;;
70270;SDS011;57680;54.292;18.598;2022-12-11T13:05:27;6.57;;;2.70;;
70270;SDS011;57680;54.292;18.598;2022-12-11T13:07:58;9.00;;;3.25;;
70270;SDS011;57680;54.292;18.598;2022-12-11T13:10:35;10.13;;;3.60;;
70270;SDS011;57680;54.292;18.598;2022-12-11T13:13:03;37.67;;;12.05;;
70270;SDS011;57680;54.292;18.598;2022-12-11T13:18:28;9.07;;;4.28;;
70270;SDS011;57680;54.292;18.598;2022-12-11T13:20:58;14.45;;;6.53;;
70270;SDS011;57680;54.292;18.598;2022-12-11T13:23:32;11.35;;;5.30;;
70270;SDS011;57680;54.292;18.598;2022-12-11T13:26:00;20.40;;;8.77;;
70270;SDS011;57680;54.292;18.598;2022-12-11T13:28:45;19.70;;;7.43;;
70270;SDS011;57680;54.292;18.598;2022-12-11T13:33:47;35.25;;;20.10;;
70270;SDS011;57680;54.292;18.598;2022-12-11T13:41:27;26.67;;;14.17;;
70270;SDS011;57680;54.292;18.598;2022-12-11T13:43:54;14.23;;;5.53;;
70270;SDS011;57680;54.292;18.598;2022-12-11T13:46:23;17.52;;;7.15;;
70270;SDS011;57680;54.292;18.598;2022-12-11T13:48:58;16.85;;;8.60;;
70270;SDS011;57680;54.292;18.598;2022-12-11T13:51:27;11.15;;;4.22;;
70270;SDS011;57680;54.292;18.598;2022-12-11T13:54:28;11.27;;;4.33;;
70270;SDS011;57680;54.292;18.598;2022-12-11T13:57:21;15.85;;;6.18;;
70270;SDS011;57680;54.292;18.598;2022-12-11T13:59:46;11.82;;;4.38;;
70270;SDS011;57680;54.292;18.598;2022-12-11T14:05:03;10.68;;;4.47;;
70270;SDS011;57680;54.292;18.598;2022-12-11T14:07:33;9.77;;;4.33;;
70270;SDS011;57680;54.292;18.598;2022-12-11T14:10:02;7.47;;;3.00;;
70270;SDS011;57680;54.292;18.598;2022-12-11T14:12:31;13.05;;;5.60;;
70270;SDS011;57680;54.292;18.598;2022-12-11T14:14:58;12.80;;;5.82;;
70270;SDS011;57680;54.292;18.598;2022-12-11T14:17:28;10.65;;;4.95;;
70270;SDS011;57680;54.292;18.598;2022-12-11T14:19:57;17.80;;;7.03;;
70270;SDS011;57680;54.292;18.598;2022-12-11T14:22:25;15.45;;;5.72;;
70270;SDS011;57680;54.292;18.598;2022-12-11T14:24:58;12.50;;;5.80;;
70270;SDS011;57680;54.292;18.598;2022-12-11T14:27:27;14.15;;;4.93;;
70270;SDS011;57680;54.292;18.598;2022-12-11T14:29:54;10.98;;;4.28;;
70270;SDS011;57680;54.292;18.598;2022-12-11T14:32:35;17.20;;;8.57;;
70270;SDS011;57680;54.292;18.598;2022-12-11T14:35:07;11.88;;;5.10;;
70270;SDS011;57680;54.292;18.598;2022-12-11T14:37:49;16.90;;;7.78;;
70270;SDS011;57680;54.292;18.598;2022-12-11T14:40:16;19.00;;;8.80;;
70270;SDS011;57680;54.292;18.598;2022-12-11T14:45:39;13.20;;;5.33;;
70270;SDS011;57680;54.292;18.598;2022-12-11T14:48:11;10.63;;;5.45;;
70270;SDS011;57680;54.292;18.598;2022-12-11T14:50:42;11.38;;;4.72;;
70270;SDS011;57680;54.292;18.598;2022-12-11T14:53:13;14.15;;;6.68;;
70270;SDS011;57680;54.292;18.598;2022-12-11T14:55:43;19.85;;;8.55;;
70270;SDS011;57680;54.292;18.598;2022-12-11T15:00:59;26.85;;;15.13;;
70270;SDS011;57680;54.292;18.598;2022-12-11T15:03:32;16.88;;;9.68;;
70270;SDS011;57680;54.292;18.598;2022-12-11T15:06:00;20.70;;;11.32;;
70270;SDS011;57680;54.292;18.598;2022-12-11T15:08:27;7.35;;;3.08;;
70270;SDS011;57680;54.292;18.598;2022-12-11T15:11:11;8.83;;;4.23;;
70270;SDS011;57680;54.292;18.598;2022-12-11T15:13:53;12.68;;;6.05;;
70270;SDS011;57680;54.292;18.598;2022-12-11T15:16:23;14.57;;;6.97;;
70270;SDS011;57680;54.292;18.598;2022-12-11T15:18:51;13.55;;;6.82;;
70270;SDS011;57680;54.292;18.598;2022-12-11T15:21:18;14.05;;;6.80;;
70270;SDS011;57680;54.292;18.598;2022-12-11T15:23:56;21.60;;;11.43;;
70270;SDS011;57680;54.292;18.598;2022-12-11T15:26:33;17.10;;;7.43;;
70270;SDS011;57680;54.292;18.598;2022-12-11T15:29:05;8.63;;;4.38;;
70270;SDS011;57680;54.292;18.598;2022-12-11T15:31:56;13.57;;;6.03;;
70270;SDS011;57680;54.292;18.598;2022-12-11T15:37:23;24.67;;;9.90;;
70270;SDS011;57680;54.292;18.598;2022-12-11T15:39:53;15.95;;;5.60;;
70270;SDS011;57680;54.292;18.598;2022-12-11T15:42:36;14.30;;;5.30;;
70270;SDS011;57680;54.292;18.598;2022-12-11T15:45:04;27.50;;;11.43;;
70270;SDS011;57680;54.292;18.598;2022-12-11T15:47:32;10.13;;;4.40;;
70270;SDS011;57680;54.292;18.598;2022-12-11T15:49:58;13.90;;;5.67;;
70270;SDS011;57680;54.292;18.598;2022-12-11T15:52:26;19.58;;;10.30;;
70270;SDS011;57680;54.292;18.598;2022-12-11T15:54:51;28.63;;;11.97;;
70270;SDS011;57680;54.292;18.598;2022-12-11T15:57:18;23.87;;;10.63;;
70270;SDS011;57680;54.292;18.598;2022-12-11T15:59:46;13.15;;;5.45;;
70270;SDS011;57680;54.292;18.598;2022-12-11T16:02:13;21.67;;;6.78;;
70270;SDS011;57680;54.292;18.598;2022-12-11T16:04:39;12.40;;;4.03;;
70270;SDS011;57680;54.292;18.598;2022-12-11T16:07:05;8.60;;;3.20;;
70270;SDS011;57680;54.292;18.598;2022-12-11T16:09:36;9.20;;;3.55;;